Time;durP1;ratioP1;P1;durP2;ratioP2;P2;SDS_P1;SDS_P2;PMS_P1;PMS_P2;Temp;Humidity;BMP_temperature;BMP_pressure;BME280_temperature;BME280_humidity;BME280_pressure;Samples;Min_cycle;Max_cycle;Signal;HPM_P1;HPM_P2
2021/09/29 00:00:46;;;;;;;;;;;6.10;93.30;;;;;;5055978;28;19912;-85
2021/09/29 00:03:12;;;;;;;;;;;6.10;93.30;;;;;;5037762;28;19905;-86
2021/09/29 00:05:39;;;;;;;;;;;6.10;93.30;;;;;;5055840;28;19911;-84
2021/09/29 00:08:05;;;;;;;;;;;6.10;93.30;;;;;;5056567;28;20281;-84
2021/09/29 00:10:31;;;;;;;;;;;6.00;93.30;;;;;;5067516;28;19995;-85
2021/09/29 00:12:57;;;;;;;;;;;5.90;93.30;;;;;;5067326;28;19904;-85
2021/09/29 00:15:23;;;;;;;;;;;5.90;93.40;;;;;;5057894;28;19951;-86
2021/09/29 00:17:48;;;;;;;;;;;5.80;93.40;;;;;;5056945;28;20319;-85
2021/09/29 00:20:15;;;;;;;;;;;5.90;93.50;;;;;;5055537;28;19905;-84
2021/09/29 00:22:42;;;;;;;;;;;5.80;93.50;;;;;;5055428;28;19919;-86
2021/09/29 00:25:08;;;;;;;;;;;5.80;93.60;;;;;;5055325;28;19904;-85
2021/09/29 00:27:35;;;;;;;;;;;5.70;93.60;;;;;;5055005;28;19958;-85
2021/09/29 00:30:05;;;;;;;;;;;5.70;93.70;;;;;;5037214;28;19905;-85
2021/09/29 00:32:30;;;;;;;;;;;5.70;93.80;;;;;;5055163;28;19909;-84
2021/09/29 00:34:57;;;;;;;;;;;5.70;93.80;;;;;;5055309;28;20268;-85
2021/09/29 00:37:27;;;;;;;;;;;5.70;93.90;;;;;;5055257;28;20285;-83
2021/09/29 00:39:54;;;;;;;;;;;5.70;93.90;;;;;;5054788;28;20262;-84
2021/09/29 00:42:19;;;;;;;;;;;5.70;93.90;;;;;;5055163;28;19916;-84
2021/09/29 00:44:45;;;;;;;;;;;5.70;94.00;;;;;;5037356;28;19958;-84
2021/09/29 00:47:11;;;;;;;;;;;5.70;94.20;;;;;;5062091;28;19906;-85
2021/09/29 00:49:37;;;;;;;;;;;5.70;94.10;;;;;;5062698;28;19905;-83
2021/09/29 00:52:03;;;;;;;;;;;5.70;94.20;;;;;;5058391;28;20274;-84
2021/09/29 00:54:29;;;;;;;;;;;5.60;94.20;;;;;;5055758;28;20015;-84
2021/09/29 00:56:56;;;;;;;;;;;5.60;94.30;;;;;;5056337;28;19999;-85
2021/09/29 00:59:22;;;;;;;;;;;5.60;94.40;;;;;;5039223;28;19905;-84
2021/09/29 01:01:48;;;;;;;;;;;5.60;94.40;;;;;;5054478;28;19912;-84
2021/09/29 01:04:14;;;;;;;;;;;5.50;94.60;;;;;;5055186;28;19905;-85
2021/09/29 01:06:51;;;;;;;;;;;5.60;94.90;;;;;;5056780;28;19947;-84
2021/09/29 01:09:23;;;;;;;;;;;5.60;94.90;;;;;;5038678;28;20326;-85
2021/09/29 01:11:58;;;;;;;;;;;5.70;95.00;;;;;;5053902;28;19947;-85
2021/09/29 01:14:26;;;;;;;;;;;5.70;95.10;;;;;;5058401;28;19909;-85
2021/09/29 01:16:53;;;;;;;;;;;5.70;95.20;;;;;;5037518;28;19905;-84
2021/09/29 01:19:35;;;;;;;;;;;5.70;95.20;;;;;;5055569;28;19908;-85
2021/09/29 01:22:05;;;;;;;;;;;5.70;95.10;;;;;;5055342;28;20062;-85
2021/09/29 01:24:46;;;;;;;;;;;5.70;95.20;;;;;;5029456;28;19909;-86
2021/09/29 01:27:11;;;;;;;;;;;5.60;95.30;;;;;;5034434;28;20274;-85
2021/09/29 01:29:37;;;;;;;;;;;5.60;95.40;;;;;;5045536;28;19911;-84
2021/09/29 01:32:03;;;;;;;;;;;5.60;95.50;;;;;;5028266;28;19912;-84
2021/09/29 01:34:29;;;;;;;;;;;5.70;95.70;;;;;;5039585;28;20002;-86
2021/09/29 01:36:55;;;;;;;;;;;5.70;95.80;;;;;;5053909;28;20389;-84
2021/09/29 01:39:25;;;;;;;;;;;5.70;95.80;;;;;;5043043;28;19909;-85
2021/09/29 01:41:51;;;;;;;;;;;5.70;95.80;;;;;;5053593;28;19919;-84
2021/09/29 01:44:17;;;;;;;;;;;5.60;95.80;;;;;;5054678;28;19905;-85
2021/09/29 01:46:42;;;;;;;;;;;5.70;95.90;;;;;;5054704;28;19904;-84
2021/09/29 01:49:14;;;;;;;;;;;5.60;96.00;;;;;;5038905;28;19904;-84
2021/09/29 01:51:41;;;;;;;;;;;5.60;96.00;;;;;;5056196;28;19944;-85
2021/09/29 01:54:07;;;;;;;;;;;5.70;96.20;;;;;;5054474;28;19917;-84
2021/09/29 01:56:33;;;;;;;;;;;5.70;96.20;;;;;;5054615;28;19905;-85
2021/09/29 01:59:01;;;;;;;;;;;5.70;96.10;;;;;;5054636;28;19909;-84
2021/09/29 02:01:29;;;;;;;;;;;5.80;96.10;;;;;;5054705;28;19942;-85
2021/09/29 02:03:55;;;;;;;;;;;5.70;96.00;;;;;;5052609;28;20039;-85
2021/09/29 02:06:20;;;;;;;;;;;5.80;96.10;;;;;;5034153;28;19909;-85
2021/09/29 02:08:46;;;;;;;;;;;5.70;96.00;;;;;;5033778;28;19920;-84
2021/09/29 02:11:12;;;;;;;;;;;5.70;96.00;;;;;;5036090;28;19905;-85
2021/09/29 02:13:37;;;;;;;;;;;5.70;96.00;;;;;;5037762;28;19912;-84
2021/09/29 02:16:03;;;;;;;;;;;5.60;96.00;;;;;;5037325;28;19913;-85
2021/09/29 02:18:29;;;;;;;;;;;5.60;96.10;;;;;;5037618;28;19909;-85
2021/09/29 02:20:54;;;;;;;;;;;5.60;96.10;;;;;;5036184;28;20393;-85
2021/09/29 02:23:21;;;;;;;;;;;5.60;96.20;;;;;;5036443;28;19905;-84
2021/09/29 02:25:47;;;;;;;;;;;5.60;96.20;;;;;;5037557;28;20038;-85
2021/09/29 02:28:12;;;;;;;;;;;5.60;96.20;;;;;;5020568;28;19940;-85
2021/09/29 02:30:38;;;;;;;;;;;5.60;96.20;;;;;;5019788;28;19905;-84
2021/09/29 02:33:04;;;;;;;;;;;5.60;96.20;;;;;;5056996;28;19904;-85
2021/09/29 02:35:29;;;;;;;;;;;5.60;96.20;;;;;;5055704;28;19909;-84
2021/09/29 02:37:55;;;;;;;;;;;5.50;96.10;;;;;;5056340;28;19905;-84
2021/09/29 02:40:22;;;;;;;;;;;5.50;96.20;;;;;;5057247;28;19905;-84
2021/09/29 02:42:48;;;;;;;;;;;5.50;96.10;;;;;;5039640;28;19931;-84
2021/09/29 02:45:14;;;;;;;;;;;5.50;96.10;;;;;;5060570;28;19912;-83
2021/09/29 02:47:40;;;;;;;;;;;5.50;96.10;;;;;;5071697;28;20392;-84
2021/09/29 02:50:05;;;;;;;;;;;5.50;96.20;;;;;;5059444;28;19914;-85
2021/09/29 02:52:31;;;;;;;;;;;5.50;96.10;;;;;;5057032;28;19904;-86
2021/09/29 02:54:57;;;;;;;;;;;5.50;96.20;;;;;;5055681;28;20292;-87
2021/09/29 02:57:24;;;;;;;;;;;5.50;96.40;;;;;;5056145;28;19948;-85
2021/09/29 02:59:49;;;;;;;;;;;5.40;96.30;;;;;;5057763;28;20301;-85
2021/09/29 03:02:15;;;;;;;;;;;5.40;96.30;;;;;;5058209;28;19956;-85
2021/09/29 03:04:41;;;;;;;;;;;5.40;96.40;;;;;;5056408;28;20273;-84
2021/09/29 03:07:06;;;;;;;;;;;5.30;96.50;;;;;;5055454;28;19915;-83
2021/09/29 03:09:32;;;;;;;;;;;5.30;96.50;;;;;;5038921;28;20384;-86
2021/09/29 03:11:58;;;;;;;;;;;5.40;96.60;;;;;;5038341;28;19920;-84
2021/09/29 03:14:24;;;;;;;;;;;5.40;96.60;;;;;;5056397;28;19908;-85
2021/09/29 03:16:49;;;;;;;;;;;5.40;96.60;;;;;;5057125;28;19912;-84
2021/09/29 03:19:15;;;;;;;;;;;5.40;96.60;;;;;;5058025;28;19905;-85
2021/09/29 03:21:40;;;;;;;;;;;5.40;96.60;;;;;;5060655;28;19913;-84
2021/09/29 03:24:06;;;;;;;;;;;5.40;96.70;;;;;;5062834;28;19927;-84
2021/09/29 03:26:32;;;;;;;;;;;5.40;96.70;;;;;;5045750;28;20273;-85
2021/09/29 03:28:58;;;;;;;;;;;5.40;96.60;;;;;;5059154;28;19904;-85
2021/09/29 03:31:23;;;;;;;;;;;5.40;96.60;;;;;;5042993;28;19959;-85
2021/09/29 03:33:49;;;;;;;;;;;5.30;96.60;;;;;;5061235;28;19916;-84
2021/09/29 03:36:15;;;;;;;;;;;5.40;96.70;;;;;;5062111;28;19904;-84
2021/09/29 03:38:40;;;;;;;;;;;5.40;96.70;;;;;;5065479;28;19909;-84
2021/09/29 03:41:06;;;;;;;;;;;5.40;96.70;;;;;;5061471;28;20382;-85
2021/09/29 03:43:32;;;;;;;;;;;5.40;96.70;;;;;;5056217;28;19963;-85
2021/09/29 03:45:57;;;;;;;;;;;5.40;96.70;;;;;;5056030;28;19904;-85
2021/09/29 03:48:23;;;;;;;;;;;5.40;96.60;;;;;;5056815;28;19911;-85
2021/09/29 03:50:49;;;;;;;;;;;5.40;96.70;;;;;;5057516;28;19904;-84
2021/09/29 03:53:14;;;;;;;;;;;5.50;96.70;;;;;;5058568;28;20051;-85
2021/09/29 03:55:40;;;;;;;;;;;5.50;96.70;;;;;;5057369;28;20318;-85
2021/09/29 03:58:06;;;;;;;;;;;5.50;96.70;;;;;;5055780;28;19912;-84
2021/09/29 04:00:31;;;;;;;;;;;5.50;96.70;;;;;;5056366;28;19911;-84
2021/09/29 04:02:57;;;;;;;;;;;5.50;96.70;;;;;;5054434;28;19913;-86
2021/09/29 04:05:23;;;;;;;;;;;5.60;96.60;;;;;;5055499;28;19909;-86
2021/09/29 04:07:48;;;;;;;;;;;5.60;96.60;;;;;;5054540;28;20008;-85
2021/09/29 04:10:14;;;;;;;;;;;5.60;96.60;;;;;;5054169;28;19999;-84
2021/09/29 04:12:42;;;;;;;;;;;5.70;96.60;;;;;;5055192;28;19962;-85
2021/09/29 04:15:09;;;;;;;;;;;5.70;96.60;;;;;;5055986;28;19911;-86
2021/09/29 04:17:36;;;;;;;;;;;5.70;96.60;;;;;;5037455;28;19948;-85
2021/09/29 04:20:03;;;;;;;;;;;5.70;96.60;;;;;;5056451;28;19995;-85
2021/09/29 04:22:28;;;;;;;;;;;5.70;96.50;;;;;;5039855;28;20282;-86
2021/09/29 04:24:55;;;;;;;;;;;5.70;96.50;;;;;;5035286;28;19905;-85
2021/09/29 04:27:21;;;;;;;;;;;5.80;96.50;;;;;;5018064;28;20313;-85
2021/09/29 04:29:47;;;;;;;;;;;5.80;96.60;;;;;;5035560;28;19912;-86
2021/09/29 04:32:12;;;;;;;;;;;5.90;96.50;;;;;;5023310;28;20008;-87
2021/09/29 04:34:38;;;;;;;;;;;5.90;96.50;;;;;;5055485;28;19952;-83
2021/09/29 04:37:04;;;;;;;;;;;5.90;96.40;;;;;;5055392;28;20270;-83
2021/09/29 04:39:29;;;;;;;;;;;6.00;96.30;;;;;;5056630;28;20284;-83
2021/09/29 04:41:55;;;;;;;;;;;6.00;96.20;;;;;;5058102;28;20397;-84
2021/09/29 04:44:21;;;;;;;;;;;6.00;96.00;;;;;;5060959;28;19943;-85
2021/09/29 04:46:46;;;;;;;;;;;6.10;96.00;;;;;;5054532;28;19965;-84
2021/09/29 04:49:12;;;;;;;;;;;6.10;96.00;;;;;;5055915;28;19916;-85
2021/09/29 04:51:38;;;;;;;;;;;6.10;95.90;;;;;;5054193;28;19931;-86
2021/09/29 04:54:04;;;;;;;;;;;6.10;95.90;;;;;;5054633;28;19917;-85
2021/09/29 04:56:30;;;;;;;;;;;6.20;95.90;;;;;;5058433;28;19916;-86
2021/09/29 04:58:55;;;;;;;;;;;6.20;95.80;;;;;;5059104;28;19996;-85
2021/09/29 05:01:25;;;;;;;;;;;6.30;95.80;;;;;;5054887;28;20365;-85
2021/09/29 05:03:51;;;;;;;;;;;6.30;95.70;;;;;;5054617;28;20417;-85
2021/09/29 05:06:17;;;;;;;;;;;6.30;95.60;;;;;;5055180;28;19905;-85
2021/09/29 05:08:43;;;;;;;;;;;6.30;95.60;;;;;;5055513;28;20358;-85
2021/09/29 05:11:19;;;;;;;;;;;6.40;95.50;;;;;;5036535;28;20282;-86
2021/09/29 05:13:45;;;;;;;;;;;6.40;95.50;;;;;;5055010;28;20377;-85
2021/09/29 05:16:11;;;;;;;;;;;6.40;95.50;;;;;;5055484;28;20350;-85
2021/09/29 05:18:37;;;;;;;;;;;6.50;95.50;;;;;;5052938;28;19912;-85
2021/09/29 05:21:02;;;;;;;;;;;6.50;95.50;;;;;;5054281;28;19905;-86
2021/09/29 05:23:28;;;;;;;;;;;6.60;95.50;;;;;;5055247;28;19905;-85
2021/09/29 05:25:54;;;;;;;;;;;6.60;95.50;;;;;;5055578;28;19905;-86
2021/09/29 05:28:25;;;;;;;;;;;6.70;95.50;;;;;;5055109;28;19931;-85
2021/09/29 05:30:51;;;;;;;;;;;6.80;95.70;;;;;;5057144;28;19928;-85
2021/09/29 05:33:16;;;;;;;;;;;6.90;95.20;;;;;;5057465;28;19905;-85
2021/09/29 05:35:42;;;;;;;;;;;6.90;95.00;;;;;;5054359;28;19959;-86
2021/09/29 05:38:08;;;;;;;;;;;7.00;94.80;;;;;;5054241;28;19908;-86
2021/09/29 05:40:33;;;;;;;;;;;7.00;94.60;;;;;;5055068;28;19905;-86
2021/09/29 05:42:59;;;;;;;;;;;7.10;94.40;;;;;;5055208;28;19916;-86
2021/09/29 05:45:25;;;;;;;;;;;7.10;94.30;;;;;;5056450;28;19926;-87
2021/09/29 05:47:50;;;;;;;;;;;7.20;94.20;;;;;;5057357;28;19904;-86
2021/09/29 05:50:16;;;;;;;;;;;7.20;93.80;;;;;;5064514;28;19904;-86
2021/09/29 05:52:42;;;;;;;;;;;7.30;93.70;;;;;;5058658;28;20324;-87
2021/09/29 05:55:10;;;;;;;;;;;7.30;93.60;;;;;;5058777;28;19912;-86
2021/09/29 05:57:39;;;;;;;;;;;7.40;93.40;;;;;;5044868;28;20366;-86
2021/09/29 06:00:08;;;;;;;;;;;7.50;93.30;;;;;;5043293;28;19904;-85
2021/09/29 06:02:34;;;;;;;;;;;7.50;93.10;;;;;;5060971;28;19912;-85
2021/09/29 06:05:00;;;;;;;;;;;7.60;93.10;;;;;;5058810;28;20449;-86
2021/09/29 06:07:25;;;;;;;;;;;7.60;92.80;;;;;;5057074;28;19911;-87
2021/09/29 06:09:51;;;;;;;;;;;7.70;92.60;;;;;;5057796;28;19966;-88
2021/09/29 06:12:17;;;;;;;;;;;7.80;92.40;;;;;;5058017;28;19974;-87
2021/09/29 06:14:49;;;;;;;;;;;7.90;92.00;;;;;;5058650;28;19911;-87
2021/09/29 06:17:25;;;;;;;;;;;8.00;91.90;;;;;;5058138;28;19972;-88
2021/09/29 06:19:51;;;;;;;;;;;8.00;91.70;;;;;;5041914;28;19912;-88
2021/09/29 06:22:17;;;;;;;;;;;8.10;91.50;;;;;;5038428;28;19928;-86
2021/09/29 06:24:43;;;;;;;;;;;8.10;91.00;;;;;;5037571;28;20351;-88
2021/09/29 06:27:09;;;;;;;;;;;8.20;91.00;;;;;;5039324;28;20030;-86
2021/09/29 06:29:35;;;;;;;;;;;8.30;90.90;;;;;;5029445;28;19905;-85
2021/09/29 06:32:02;;;;;;;;;;;8.30;90.80;;;;;;5047339;28;19905;-86
2021/09/29 06:34:28;;;;;;;;;;;8.40;90.90;;;;;;5057396;28;20354;-86
2021/09/29 06:36:54;;;;;;;;;;;8.50;90.90;;;;;;5060842;28;19911;-85
2021/09/29 06:39:20;;;;;;;;;;;8.60;90.90;;;;;;5048706;28;19912;-85
2021/09/29 06:41:48;;;;;;;;;;;8.70;90.80;;;;;;5050992;28;20370;-86
2021/09/29 06:44:18;;;;;;;;;;;8.80;90.20;;;;;;5040371;28;20000;-85
2021/09/29 06:46:43;;;;;;;;;;;8.90;90.10;;;;;;5039382;28;19951;-87
2021/09/29 06:49:09;;;;;;;;;;;9.10;90.10;;;;;;5057856;28;19912;-88
2021/09/29 06:51:35;;;;;;;;;;;9.10;90.00;;;;;;5058421;28;19911;-85
2021/09/29 06:54:00;;;;;;;;;;;9.30;89.90;;;;;;5057118;28;19962;-85
2021/09/29 06:56:26;;;;;;;;;;;9.40;89.30;;;;;;5061584;28;19904;-86
2021/09/29 06:58:52;;;;;;;;;;;9.40;88.80;;;;;;5060084;28;19905;-85
2021/09/29 07:01:21;;;;;;;;;;;9.50;88.20;;;;;;5057935;28;20369;-86
2021/09/29 07:03:47;;;;;;;;;;;9.60;87.90;;;;;;5059806;28;19905;-84
2021/09/29 07:06:13;;;;;;;;;;;9.60;87.30;;;;;;5045870;28;19919;-86
2021/09/29 07:08:39;;;;;;;;;;;9.70;87.00;;;;;;5060834;28;19905;-86
2021/09/29 07:11:08;;;;;;;;;;;9.80;85.50;;;;;;5039946;28;20349;-87
2021/09/29 07:13:33;;;;;;;;;;;9.80;84.30;;;;;;5039311;28;19950;-88
2021/09/29 07:16:02;;;;;;;;;;;9.80;84.70;;;;;;5057836;28;19912;-86
2021/09/29 07:18:29;;;;;;;;;;;9.90;85.20;;;;;;5028327;28;19905;-87
2021/09/29 07:20:55;;;;;;;;;;;10.30;85.60;;;;;;5037704;28;19928;-88
2021/09/29 07:23:20;;;;;;;;;;;11.30;86.50;;;;;;5039298;28;19905;-87
2021/09/29 07:25:46;;;;;;;;;;;12.60;84.20;;;;;;5020685;28;19951;-87
2021/09/29 07:28:12;;;;;;;;;;;14.00;78.80;;;;;;5036869;28;19905;-85
2021/09/29 07:30:40;;;;;;;;;;;15.10;75.70;;;;;;5037223;28;19916;-87
2021/09/29 07:33:09;;;;;;;;;;;16.10;66.90;;;;;;5022055;28;19912;-87
2021/09/29 07:35:37;;;;;;;;;;;16.60;64.60;;;;;;5019214;28;19912;-86
2021/09/29 07:38:02;;;;;;;;;;;16.70;62.80;;;;;;5019208;28;19905;-86
2021/09/29 07:40:28;;;;;;;;;;;17.20;62.70;;;;;;5019559;28;20286;-86
2021/09/29 07:42:55;;;;;;;;;;;17.90;61.70;;;;;;5036607;28;20358;-86
2021/09/29 07:45:21;;;;;;;;;;;18.00;57.40;;;;;;5037333;28;19913;-85
2021/09/29 07:47:47;;;;;;;;;;;17.90;56.20;;;;;;5018559;28;19912;-85
2021/09/29 07:50:15;;;;;;;;;;;18.30;56.90;;;;;;5035514;28;19916;-86
2021/09/29 07:52:42;;;;;;;;;;;18.90;56.90;;;;;;5036244;28;19959;-85
2021/09/29 07:55:08;;;;;;;;;;;19.60;52.80;;;;;;5018277;28;19995;-86
2021/09/29 07:57:36;;;;;;;;;;;19.50;52.80;;;;;;5017793;28;19905;-86
2021/09/29 08:00:02;;;;;;;;;;;19.80;53.80;;;;;;5035441;28;19912;-84
2021/09/29 08:02:28;;;;;;;;;;;20.10;48.70;;;;;;5038129;28;19966;-87
2021/09/29 08:04:56;;;;;;;;;;;20.20;51.70;;;;;;5020643;28;20347;-87
2021/09/29 08:07:22;;;;;;;;;;;20.40;48.40;;;;;;5021363;28;19911;-86
2021/09/29 08:09:47;;;;;;;;;;;20.30;47.60;;;;;;5037655;28;20016;-84
2021/09/29 08:12:13;;;;;;;;;;;20.00;46.90;;;;;;5035355;28;20289;-85
2021/09/29 08:14:42;;;;;;;;;;;20.00;48.80;;;;;;5017937;28;19913;-86
2021/09/29 08:17:07;;;;;;;;;;;20.30;47.90;;;;;;5017662;28;19958;-85
2021/09/29 08:19:33;;;;;;;;;;;20.50;47.40;;;;;;5035422;28;19909;-87
2021/09/29 08:22:03;;;;;;;;;;;20.90;47.10;;;;;;5035132;28;20366;-85
2021/09/29 08:24:37;;;;;;;;;;;21.40;47.90;;;;;;5017354;28;19905;-86
2021/09/29 08:38:01;;;;;;;;;;;22.80;43.00;;;;;;5048649;28;20276;-85
2021/09/29 08:40:46;;;;;;;;;;;23.10;42.00;;;;;;5055772;28;19913;-84
2021/09/29 08:45:55;;;;;;;;;;;22.90;43.40;;;;;;5062894;28;20408;-85
2021/09/29 08:48:31;;;;;;;;;;;23.30;42.40;;;;;;5054398;28;19905;-85
2021/09/29 08:53:54;;;;;;;;;;;23.20;40.90;;;;;;5055126;28;19923;-85
2021/09/29 08:56:36;;;;;;;;;;;22.50;42.20;;;;;;5054657;28;19943;-85
2021/09/29 09:18:21;;;;;;;;;;;21.40;45.20;;;;;;5054839;28;19911;-88
2021/09/29 09:21:07;;;;;;;;;;;21.90;43.30;;;;;;5057749;28;19988;-87
2021/09/29 09:23:36;;;;;;;;;;;22.00;42.20;;;;;;5040982;28;19912;-86
2021/09/29 09:26:22;;;;;;;;;;;21.30;42.80;;;;;;5036255;28;20018;-86
2021/09/29 09:28:50;;;;;;;;;;;21.10;43.70;;;;;;5036137;28;19911;-86
2021/09/29 09:31:20;;;;;;;;;;;21.50;43.90;;;;;;5053802;28;19920;-86
2021/09/29 09:33:56;;;;;;;;;;;21.20;42.80;;;;;;5054753;28;20416;-85
2021/09/29 09:36:38;;;;;;;;;;;20.90;44.20;;;;;;5038432;28;19904;-85
2021/09/29 09:39:07;;;;;;;;;;;20.40;44.00;;;;;;5052495;28;20008;-87
2021/09/29 09:41:33;;;;;;;;;;;20.50;44.60;;;;;;5053601;28;20015;-87
2021/09/29 09:44:00;;;;;;;;;;;21.20;44.60;;;;;;5054154;28;19943;-88
2021/09/29 09:46:26;;;;;;;;;;;21.50;44.10;;;;;;5056890;28;20269;-86
2021/09/29 09:48:58;;;;;;;;;;;21.80;43.30;;;;;;5055692;28;19905;-87
2021/09/29 09:51:24;;;;;;;;;;;21.30;43.30;;;;;;5052717;28;19905;-87
2021/09/29 09:53:53;;;;;;;;;;;20.80;43.40;;;;;;5053684;28;20219;-87
2021/09/29 09:56:21;;;;;;;;;;;20.90;44.40;;;;;;5036452;28;19920;-86
2021/09/29 09:58:52;;;;;;;;;;;21.10;44.10;;;;;;5054838;28;19976;-87
2021/09/29 10:01:22;;;;;;;;;;;21.60;43.50;;;;;;5056914;28;19919;-88
2021/09/29 10:03:48;;;;;;;;;;;21.80;42.50;;;;;;5054589;28;20003;-86
2021/09/29 10:06:14;;;;;;;;;;;21.90;42.40;;;;;;5054707;28;19919;-87
2021/09/29 10:08:43;;;;;;;;;;;21.50;42.80;;;;;;5036714;28;19909;-87
2021/09/29 10:11:17;;;;;;;;;;;20.70;42.60;;;;;;5036605;28;19995;-87
2021/09/29 10:27:51;;;;;;;;;;;16.00;50.80;;;;;;5045749;28;20026;-86
2021/09/29 10:30:23;;;;;;;;;;;15.60;52.40;;;;;;5045269;28;19905;-86
2021/09/29 10:32:51;;;;;;;;;;;15.40;53.20;;;;;;5039508;28;19968;-85
2021/09/29 10:43:24;;;;;;;;;;;14.50;56.20;;;;;;5057754;28;20031;-86
2021/09/29 10:46:01;;;;;;;;;;;14.30;57.00;;;;;;5057624;28;19905;-86
2021/09/29 11:11:30;;;;;;;;;;;13.20;59.80;;;;;;5049446;28;19908;-86
2021/09/29 11:28:05;;;;;;;;;;;13.00;62.10;;;;;;5040668;28;20008;-86
2021/09/29 11:30:34;;;;;;;;;;;13.00;62.30;;;;;;5037395;28;19904;-86
2021/09/29 12:08:29;;;;;;;;;;;12.00;65.40;;;;;;5056977;28;19962;-88
2021/09/29 12:14:02;;;;;;;;;;;11.70;66.00;;;;;;5039472;28;19905;-87
2021/09/29 12:16:30;;;;;;;;;;;11.60;66.20;;;;;;5037698;28;20256;-86
2021/09/29 12:18:56;;;;;;;;;;;11.40;66.50;;;;;;5036801;28;19912;-87
2021/09/29 12:21:47;;;;;;;;;;;11.40;67.10;;;;;;5036262;28;19909;-87
2021/09/29 12:24:24;;;;;;;;;;;11.30;67.20;;;;;;5035782;28;19931;-87
2021/09/29 12:26:53;;;;;;;;;;;11.20;68.20;;;;;;5017685;28;19909;-87
2021/09/29 12:29:32;;;;;;;;;;;11.20;68.80;;;;;;5035905;28;20321;-87
2021/09/29 12:32:27;;;;;;;;;;;11.30;68.80;;;;;;5038955;28;19916;-87
2021/09/29 12:35:21;;;;;;;;;;;11.40;68.30;;;;;;5053772;28;19950;-86
2021/09/29 12:37:54;;;;;;;;;;;11.40;68.00;;;;;;5055528;28;19911;-88
2021/09/29 12:40:20;;;;;;;;;;;11.30;68.20;;;;;;5055044;28;19951;-88
2021/09/29 12:42:54;;;;;;;;;;;11.30;69.00;;;;;;5056386;28;19917;-87
2021/09/29 12:45:23;;;;;;;;;;;11.30;69.00;;;;;;5056694;28;19950;-86
2021/09/29 12:47:49;;;;;;;;;;;11.30;69.20;;;;;;5056142;28;19909;-85
2021/09/29 12:50:17;;;;;;;;;;;11.40;69.10;;;;;;5055106;28;20327;-86
2021/09/29 12:52:50;;;;;;;;;;;11.50;68.90;;;;;;5055794;28;19905;-88
2021/09/29 12:55:22;;;;;;;;;;;11.40;68.40;;;;;;5053294;28;19913;-87
2021/09/29 12:57:48;;;;;;;;;;;11.30;68.70;;;;;;5057243;28;20282;-87
2021/09/29 13:00:16;;;;;;;;;;;11.20;68.90;;;;;;5061758;28;19905;-85
2021/09/29 13:02:42;;;;;;;;;;;11.10;69.40;;;;;;5066464;28;19976;-85
2021/09/29 13:05:08;;;;;;;;;;;10.90;70.20;;;;;;5064839;28;19904;-86
2021/09/29 13:07:33;;;;;;;;;;;10.80;70.20;;;;;;5038948;28;20301;-85
2021/09/29 13:09:59;;;;;;;;;;;10.70;70.70;;;;;;5053485;28;19909;-86
2021/09/29 13:12:25;;;;;;;;;;;10.70;70.80;;;;;;5036648;28;20012;-87
2021/09/29 13:14:50;;;;;;;;;;;10.60;71.00;;;;;;5017625;28;19967;-88
2021/09/29 13:17:16;;;;;;;;;;;10.60;70.80;;;;;;5036052;28;19905;-84
2021/09/29 13:19:48;;;;;;;;;;;10.50;71.10;;;;;;5022485;28;20318;-87
2021/09/29 13:22:20;;;;;;;;;;;10.50;71.30;;;;;;5036500;28;20263;-86
2021/09/29 13:25:00;;;;;;;;;;;10.50;71.40;;;;;;5018553;28;19905;-86
2021/09/29 13:36:34;;;;;;;;;;;10.60;71.40;;;;;;5053928;28;19936;-87
2021/09/29 13:38:02;;;;;;;;;;;10.50;71.30;;;;;;5054025;28;19936;-85
2021/09/29 13:40:28;;;;;;;;;;;10.40;71.70;;;;;;5052847;28;19966;-87
2021/09/29 13:42:53;;;;;;;;;;;10.20;71.80;;;;;;5054342;28;20004;-87
2021/09/29 13:45:19;;;;;;;;;;;10.10;72.10;;;;;;5054300;28;19912;-85
2021/09/29 13:47:45;;;;;;;;;;;10.00;72.60;;;;;;5052882;28;19912;-87
2021/09/29 13:50:13;;;;;;;;;;;9.90;72.80;;;;;;5054685;28;20286;-86
2021/09/29 13:52:39;;;;;;;;;;;9.90;72.90;;;;;;5061837;28;19951;-85
2021/09/29 13:55:09;;;;;;;;;;;10.00;73.10;;;;;;5060561;28;19912;-86
2021/09/29 14:02:49;;;;;;;;;;;9.80;73.10;;;;;;5054491;28;20428;-86
2021/09/29 14:30:03;;;;;;;;;;;9.20;72.90;;;;;;5041421;28;19996;-87
2021/09/29 14:32:32;;;;;;;;;;;9.10;72.90;;;;;;5028614;28;19982;-86
2021/09/29 14:34:58;;;;;;;;;;;8.90;73.20;;;;;;5056705;28;19911;-88
2021/09/29 14:37:23;;;;;;;;;;;8.90;73.80;;;;;;5040029;28;19948;-88
2021/09/29 14:39:49;;;;;;;;;;;8.80;74.00;;;;;;5056322;28;19931;-88
2021/09/29 14:42:15;;;;;;;;;;;8.70;74.10;;;;;;5057188;28;20429;-88
2021/09/29 14:44:43;;;;;;;;;;;8.70;74.60;;;;;;5057481;28;19992;-86
2021/09/29 14:47:11;;;;;;;;;;;8.70;75.10;;;;;;5057860;28;19911;-88
2021/09/29 14:49:39;;;;;;;;;;;8.70;75.60;;;;;;5057048;28;19950;-86
2021/09/29 14:52:04;;;;;;;;;;;8.70;75.80;;;;;;5060856;28;19911;-87
2021/09/29 14:54:30;;;;;;;;;;;8.70;76.30;;;;;;5062169;28;19917;-86
2021/09/29 14:56:56;;;;;;;;;;;8.70;76.60;;;;;;5057916;28;19988;-86
2021/09/29 14:59:22;;;;;;;;;;;8.70;76.60;;;;;;5057282;28;19959;-86
2021/09/29 15:01:48;;;;;;;;;;;8.80;76.80;;;;;;5060579;28;19912;-87
2021/09/29 15:04:13;;;;;;;;;;;8.70;76.60;;;;;;5058052;28;19991;-87
2021/09/29 15:06:39;;;;;;;;;;;8.80;76.70;;;;;;5055052;28;20287;-86
2021/09/29 15:09:05;;;;;;;;;;;8.80;76.70;;;;;;5044556;28;19905;-85
2021/09/29 15:11:31;;;;;;;;;;;8.80;76.80;;;;;;5036788;28;19959;-87
2021/09/29 15:14:04;;;;;;;;;;;8.80;77.20;;;;;;5037446;28;20267;-87
2021/09/29 15:16:33;;;;;;;;;;;8.70;77.40;;;;;;5043495;28;19977;-86
2021/09/29 15:20:04;;;;;;;;;;;8.70;77.50;;;;;;5049552;28;19909;-86
2021/09/29 15:46:19;;;;;;;;;;;8.70;78.70;;;;;;5056248;28;19911;-86
2021/09/29 15:49:07;;;;;;;;;;;8.70;78.70;;;;;;5058878;28;19999;-87
2021/09/29 15:51:51;;;;;;;;;;;8.70;78.90;;;;;;5055125;28;19912;-86
2021/09/29 15:59:39;;;;;;;;;;;8.50;79.20;;;;;;5054962;28;19908;-86
2021/09/29 16:01:58;;;;;;;;;;;8.40;79.50;;;;;;5055224;28;19919;-86
2021/09/29 16:07:08;;;;;;;;;;;8.40;79.50;;;;;;5052500;28;20270;-87
2021/09/29 16:31:23;;;;;;;;;;;8.10;80.60;;;;;;5035345;28;19912;-85
2021/09/29 16:34:05;;;;;;;;;;;8.20;80.60;;;;;;5056736;28;19936;-88
2021/09/29 16:36:31;;;;;;;;;;;8.10;80.50;;;;;;5055898;28;19908;-87
2021/09/29 16:38:56;;;;;;;;;;;8.00;80.70;;;;;;5058426;28;19905;-87
2021/09/29 16:41:22;;;;;;;;;;;8.00;80.80;;;;;;5060157;28;19905;-87
2021/09/29 16:43:48;;;;;;;;;;;8.00;80.80;;;;;;5060279;28;19940;-85
2021/09/29 16:46:16;;;;;;;;;;;8.10;80.60;;;;;;5040406;28;20028;-86
2021/09/29 16:48:42;;;;;;;;;;;8.00;80.40;;;;;;5040360;28;19912;-88
2021/09/29 16:53:37;;;;;;;;;;;7.90;80.40;;;;;;5054279;28;19939;-87
2021/09/29 16:56:03;;;;;;;;;;;7.90;80.50;;;;;;5054347;28;20322;-88
2021/09/29 16:58:39;;;;;;;;;;;7.90;81.00;;;;;;5056102;28;19935;-84
2021/09/29 17:01:09;;;;;;;;;;;7.80;81.40;;;;;;5053849;28;19992;-87
2021/09/29 17:03:36;;;;;;;;;;;7.80;81.40;;;;;;5055910;28;19967;-87
2021/09/29 17:06:02;;;;;;;;;;;7.80;81.40;;;;;;5035848;28;19905;-86
2021/09/29 17:08:29;;;;;;;;;;;7.80;81.30;;;;;;5057633;28;19936;-89
2021/09/29 17:10:55;;;;;;;;;;;7.80;81.50;;;;;;5063328;28;19896;-86
2021/09/29 17:13:23;;;;;;;;;;;7.80;81.60;;;;;;5064619;28;20273;-85
2021/09/29 17:15:50;;;;;;;;;;;7.80;81.80;;;;;;5068837;28;19908;-87
2021/09/29 17:18:16;;;;;;;;;;;7.80;82.00;;;;;;5045879;28;19931;-89
2021/09/29 17:20:42;;;;;;;;;;;7.80;82.40;;;;;;5064118;28;19904;-86
2021/09/29 17:23:10;;;;;;;;;;;7.80;82.40;;;;;;5063886;28;19913;-82
2021/09/29 17:25:35;;;;;;;;;;;7.70;82.60;;;;;;5056079;28;19948;-87
2021/09/29 17:28:02;;;;;;;;;;;7.70;82.70;;;;;;5055315;28;19958;-85
2021/09/29 17:30:30;;;;;;;;;;;7.70;82.90;;;;;;5034342;28;19925;-82
2021/09/29 17:35:49;;;;;;;;;;;7.70;83.20;;;;;;5051488;28;19999;-86
2021/09/29 17:38:42;;;;;;;;;;;7.80;83.30;;;;;;5049679;28;19912;-84
2021/09/29 17:54:59;;;;;;;;;;;7.70;83.30;;;;;;5050005;28;19924;-89
2021/09/29 17:57:26;;;;;;;;;;;7.70;83.20;;;;;;5073712;28;19905;-85
2021/09/29 18:00:05;;;;;;;;;;;7.70;83.10;;;;;;5063316;28;20282;-85
2021/09/29 18:05:11;;;;;;;;;;;7.70;82.90;;;;;;5054511;28;19905;-87
2021/09/29 18:07:50;;;;;;;;;;;7.60;82.80;;;;;;5067731;28;19928;-88
2021/09/29 18:10:16;;;;;;;;;;;7.60;82.70;;;;;;5048275;28;20007;-86
2021/09/29 18:12:49;;;;;;;;;;;7.70;82.80;;;;;;5059133;28;19911;-84
2021/09/29 18:15:29;;;;;;;;;;;7.60;82.60;;;;;;5080027;28;19951;-88
2021/09/29 18:18:02;;;;;;;;;;;7.60;82.70;;;;;;5064997;28;19998;-88
2021/09/29 18:23:18;;;;;;;;;;;7.50;82.70;;;;;;5099446;22;19928;-89
2021/09/29 18:25:44;;;;;;;;;;;7.50;82.80;;;;;;5033134;28;19993;-87
2021/09/29 18:28:27;;;;;;;;;;;7.40;82.90;;;;;;5036650;28;19905;-90
2021/09/29 18:30:59;;;;;;;;;;;7.40;82.90;;;;;;5047058;28;19940;-90
2021/09/29 18:33:35;;;;;;;;;;;7.50;82.90;;;;;;5050864;28;19909;-89
2021/09/29 18:36:38;;;;;;;;;;;7.50;82.70;;;;;;5043171;28;20279;-88
2021/09/29 18:38:58;;;;;;;;;;;7.40;83.20;;;;;;5053786;28;19911;-87
2021/09/29 18:41:25;;;;;;;;;;;7.50;82.60;;;;;;5043628;28;19928;-86